Terminal Aerodrome Forecast
Issued by NWS

Current Version | Previous Version | Graphics & Text | Print | Product List | Glossary On
Versions: 1 2 3 4 5 6 7 8 9 10 11 12 13 14 15 16 17 18 19 20
054
FTUS41 KPBZ 131049 AAB
TAFMGW
TAF AMD
KMGW 131049Z 1311/1406 32007KT P6SM OVC015
     FM131600 32009KT P6SM BKN050
     FM132000 32009KT P6SM SCT050
     FM140500 33003KT P6SM SCT050=

USA.gov is the U.S. government's official web portal to all federal, state and local government web resources and services.